sensor_id;sensor_type;location;lat;lon;timestamp;pressure;altitude;pressure_sealevel;temperature;humidity
55858;BME280;41779;52.360;31.026;2022-10-30T00:04:34;1019.6;;;16.1;62.4
55858;BME280;41779;52.360;31.026;2022-10-30T00:09:14;1019.6;;;16.1;62.5
55858;BME280;41779;52.360;31.026;2022-10-30T00:14:32;1019.6;;;16;62.6
55858;BME280;41779;52.360;31.026;2022-10-30T00:19:08;1019.6;;;16;62.7
55858;BME280;41779;52.360;31.026;2022-10-30T00:23:56;1019.5;;;16;62.7
55858;BME280;41779;52.360;31.026;2022-10-30T00:29:06;1019.5;;;15.9;62.7
55858;BME280;41779;52.360;31.026;2022-10-30T00:34:22;1019.5;;;15.9;62.4
55858;BME280;41779;52.360;31.026;2022-10-30T00:39:36;1019.5;;;15.8;62.4
55858;BME280;41779;52.360;31.026;2022-10-30T00:44:35;1019.6;;;15.8;62.5
55858;BME280;41779;52.360;31.026;2022-10-30T00:49:34;1019.6;;;15.8;62.4
55858;BME280;41779;52.360;31.026;2022-10-30T00:54:24;1019.7;;;15.8;62.5
55858;BME280;41779;52.360;31.026;2022-10-30T00:59:27;1019.8;;;15.7;62.5
55858;BME280;41779;52.360;31.026;2022-10-30T01:04:10;1019.9;;;15.7;62.5
55858;BME280;41779;52.360;31.026;2022-10-30T01:09:34;1019.9;;;15.7;62.2
55858;BME280;41779;52.360;31.026;2022-10-30T01:14:01;1019.9;;;15.7;62.3
55858;BME280;41779;52.360;31.026;2022-10-30T01:19:37;1020;;;15.6;62
55858;BME280;41779;52.360;31.026;2022-10-30T01:24:16;1020;;;15.5;61.8
55858;BME280;41779;52.360;31.026;2022-10-30T01:29:43;1020.1;;;15.5;61.6
55858;BME280;41779;52.360;31.026;2022-10-30T01:34:17;1020.2;;;15.4;61.1
55858;BME280;41779;52.360;31.026;2022-10-30T01:39:19;1020.2;;;15.4;61.1
55858;BME280;41779;52.360;31.026;2022-10-30T01:44:19;1020.3;;;15.4;61.1
55858;BME280;41779;52.360;31.026;2022-10-30T01:49:29;1020.3;;;15.4;61.1
55858;BME280;41779;52.360;31.026;2022-10-30T01:54:20;1020.4;;;15.4;60.9
55858;BME280;41779;52.360;31.026;2022-10-30T01:59:38;1020.4;;;15.4;60.5
55858;BME280;41779;52.360;31.026;2022-10-30T02:03:56;1020.5;;;15.3;59.9
55858;BME280;41779;52.360;31.026;2022-10-30T02:09:38;1020.5;;;15.3;58.7
55858;BME280;41779;52.360;31.026;2022-10-30T02:14:31;1020.6;;;15.2;58
55858;BME280;41779;52.360;31.026;2022-10-30T02:19:24;1020.5;;;15.2;57.5
55858;BME280;41779;52.360;31.026;2022-10-30T02:24:26;1020.5;;;15.2;57.6
55858;BME280;41779;52.360;31.026;2022-10-30T02:28:56;1020.5;;;15.1;57.5
55858;BME280;41779;52.360;31.026;2022-10-30T02:34:40;1020.5;;;15.1;57.2
55858;BME280;41779;52.360;31.026;2022-10-30T02:39:18;1020.5;;;15.1;56.8
55858;BME280;41779;52.360;31.026;2022-10-30T02:44:30;1020.5;;;15.1;56.8
55858;BME280;41779;52.360;31.026;2022-10-30T02:48:56;1020.6;;;15.1;57.4
55858;BME280;41779;52.360;31.026;2022-10-30T02:53:56;1020.6;;;15.1;57.8
55858;BME280;41779;52.360;31.026;2022-10-30T02:59:20;1020.6;;;15.1;57.8
55858;BME280;41779;52.360;31.026;2022-10-30T03:04:26;1020.6;;;15.1;57.2
55858;BME280;41779;52.360;31.026;2022-10-30T03:09:18;1020.7;;;15.1;56.6
55858;BME280;41779;52.360;31.026;2022-10-30T03:14:38;1020.7;;;15;56.6
55858;BME280;41779;52.360;31.026;2022-10-30T03:19:08;1020.7;;;15;56.6
55858;BME280;41779;52.360;31.026;2022-10-30T03:24:40;1020.7;;;15.1;56.6
55858;BME280;41779;52.360;31.026;2022-10-30T03:29:30;1020.7;;;15.1;56.5
55858;BME280;41779;52.360;31.026;2022-10-30T03:34:26;1020.7;;;15;56.6
55858;BME280;41779;52.360;31.026;2022-10-30T03:39:36;1020.7;;;15;56.4
55858;BME280;41779;52.360;31.026;2022-10-30T03:43:56;1020.7;;;14.9;56.5
55858;BME280;41779;52.360;31.026;2022-10-30T03:49:40;1020.7;;;14.9;57
55858;BME280;41779;52.360;31.026;2022-10-30T03:54:18;1020.7;;;14.9;57.4
55858;BME280;41779;52.360;31.026;2022-10-30T03:59:30;1020.7;;;14.8;57.7
55858;BME280;41779;52.360;31.026;2022-10-30T04:03:56;1020.7;;;14.8;57.8
55858;BME280;41779;52.360;31.026;2022-10-30T04:09:08;1020.7;;;14.8;57.9
55858;BME280;41779;52.360;31.026;2022-10-30T04:13:56;1020.6;;;14.8;57.8
55858;BME280;41779;52.360;31.026;2022-10-30T04:19:24;1020.7;;;14.8;57.8
55858;BME280;41779;52.360;31.026;2022-10-30T04:24:16;1020.7;;;14.8;57.7
55858;BME280;41779;52.360;31.026;2022-10-30T04:29:40;1020.8;;;14.8;57.7
55858;BME280;41779;52.360;31.026;2022-10-30T04:34:08;1020.8;;;14.8;57.4
55858;BME280;41779;52.360;31.026;2022-10-30T04:39:26;1020.9;;;14.8;57.3
55858;BME280;41779;52.360;31.026;2022-10-30T04:44:10;1020.9;;;14.7;57.3
55858;BME280;41779;52.360;31.026;2022-10-30T04:49:26;1020.9;;;14.7;56.7
55858;BME280;41779;52.360;31.026;2022-10-30T04:54:26;1020.9;;;14.7;56.2
55858;BME280;41779;52.360;31.026;2022-10-30T04:58:56;1021;;;14.7;56
55858;BME280;41779;52.360;31.026;2022-10-30T05:04:40;1021;;;14.8;55.9
55858;BME280;41779;52.360;31.026;2022-10-30T05:08:56;1021;;;14.8;55.6
55858;BME280;41779;52.360;31.026;2022-10-30T05:14:30;1021;;;14.7;55.3
55858;BME280;41779;52.360;31.026;2022-10-30T05:19:00;1021;;;14.7;55
55858;BME280;41779;52.360;31.026;2022-10-30T05:24:08;1021;;;14.7;55.1
55858;BME280;41779;52.360;31.026;2022-10-30T05:29:18;1020.9;;;14.8;54.9
55858;BME280;41779;52.360;31.026;2022-10-30T05:34:24;1021;;;14.7;55
55858;BME280;41779;52.360;31.026;2022-10-30T05:39:16;1021;;;14.7;55.1
55858;BME280;41779;52.360;31.026;2022-10-30T05:44:38;1021;;;14.7;55
55858;BME280;41779;52.360;31.026;2022-10-30T05:49:20;1021.1;;;14.7;54.7
55858;BME280;41779;52.360;31.026;2022-10-30T05:54:28;1021;;;14.7;54.7
55858;BME280;41779;52.360;31.026;2022-10-30T05:59:08;1021.1;;;14.8;54.8
55858;BME280;41779;52.360;31.026;2022-10-30T06:04:26;1021.1;;;15;54.4
55858;BME280;41779;52.360;31.026;2022-10-30T06:09:26;1021.1;;;15.1;54.3
55858;BME280;41779;52.360;31.026;2022-10-30T06:13:56;1021.2;;;15.1;54.2
55858;BME280;41779;52.360;31.026;2022-10-30T06:19:40;1021.2;;;15.2;53.9
55858;BME280;41779;52.360;31.026;2022-10-30T06:24:40;1021.2;;;15.2;53.7
55858;BME280;41779;52.360;31.026;2022-10-30T06:29:40;1021.3;;;15.2;53.8
55858;BME280;41779;52.360;31.026;2022-10-30T06:34:14;1021.3;;;15.2;53.8
55858;BME280;41779;52.360;31.026;2022-10-30T06:39:06;1021.3;;;15.3;53.9
55858;BME280;41779;52.360;31.026;2022-10-30T06:43:56;1021.2;;;15.4;53.6
55858;BME280;41779;52.360;31.026;2022-10-30T06:49:30;1021.3;;;15.4;53
55858;BME280;41779;52.360;31.026;2022-10-30T06:53:56;1021.3;;;15.4;52.9
55858;BME280;41779;52.360;31.026;2022-10-30T06:59:24;1021.3;;;15.4;52.7
55858;BME280;41779;52.360;31.026;2022-10-30T07:04:08;1021.3;;;15.4;53
55858;BME280;41779;52.360;31.026;2022-10-30T07:09:38;1021.2;;;15.4;53
55858;BME280;41779;52.360;31.026;2022-10-30T07:14:18;1021.2;;;15.6;52.8
55858;BME280;41779;52.360;31.026;2022-10-30T07:19:26;1021.2;;;15.7;52.2
55858;BME280;41779;52.360;31.026;2022-10-30T07:24:26;1021.1;;;15.7;52
55858;BME280;41779;52.360;31.026;2022-10-30T07:29:12;1021.1;;;15.8;51.9
55858;BME280;41779;52.360;31.026;2022-10-30T07:34:40;1021.1;;;15.8;51.9
55858;BME280;41779;52.360;31.026;2022-10-30T07:39:38;1021.1;;;15.9;51.8
55858;BME280;41779;52.360;31.026;2022-10-30T07:44:28;1021.1;;;15.9;52
55858;BME280;41779;52.360;31.026;2022-10-30T07:49:14;1021.1;;;16;51.8
55858;BME280;41779;52.360;31.026;2022-10-30T07:54:08;1021.1;;;16.1;51.4
55858;BME280;41779;52.360;31.026;2022-10-30T07:59:20;1021;;;16;51.3
55858;BME280;41779;52.360;31.026;2022-10-30T08:04:40;1021;;;16;51.6
55858;BME280;41779;52.360;31.026;2022-10-30T08:09:18;1021;;;15.9;52
55858;BME280;41779;52.360;31.026;2022-10-30T08:14:24;1021;;;16;52.2
55858;BME280;41779;52.360;31.026;2022-10-30T08:19:08;1021;;;16.1;52.2
55858;BME280;41779;52.360;31.026;2022-10-30T08:24:38;1021;;;16.2;51.8
55858;BME280;41779;52.360;31.026;2022-10-30T08:29:20;1021;;;16.2;52.1
55858;BME280;41779;52.360;31.026;2022-10-30T08:34:29;1021;;;16.3;52.1
55858;BME280;41779;52.360;31.026;2022-10-30T08:39:30;1021;;;16.3;52
55858;BME280;41779;52.360;31.026;2022-10-30T08:43:56;1021;;;16.2;52.1
55858;BME280;41779;52.360;31.026;2022-10-30T08:49:42;1021;;;16.1;52.4
55858;BME280;41779;52.360;31.026;2022-10-30T08:54:42;1021;;;16;52.8
55858;BME280;41779;52.360;31.026;2022-10-30T08:59:42;1021;;;16;53
55858;BME280;41779;52.360;31.026;2022-10-30T09:04:14;1021;;;16.2;53
55858;BME280;41779;52.360;31.026;2022-10-30T09:08:56;1021;;;16.2;52.9
55858;BME280;41779;52.360;31.026;2022-10-30T09:14:20;1021;;;16.1;53.1
55858;BME280;41779;52.360;31.026;2022-10-30T09:19:42;1021;;;16;53.1
55858;BME280;41779;52.360;31.026;2022-10-30T09:24:16;1021;;;16;53.2
55858;BME280;41779;52.360;31.026;2022-10-30T09:29:28;1021;;;15.9;53.4
55858;BME280;41779;52.360;31.026;2022-10-30T09:34:08;1021;;;15.9;53.6
55858;BME280;41779;52.360;31.026;2022-10-30T09:39:40;1020.9;;;15.9;53.5
55858;BME280;41779;52.360;31.026;2022-10-30T09:44:00;1020.9;;;16;53.4
55858;BME280;41779;52.360;31.026;2022-10-30T09:49:31;1020.9;;;16.1;53.5
55858;BME280;41779;52.360;31.026;2022-10-30T09:54:32;1020.9;;;16.2;53.5
55858;BME280;41779;52.360;31.026;2022-10-30T09:58:59;1020.8;;;16.2;53.2
55858;BME280;41779;52.360;31.026;2022-10-30T10:04:43;1020.8;;;16.2;53
55858;BME280;41779;52.360;31.026;2022-10-30T10:09:36;1020.8;;;16.3;52.7
55858;BME280;41779;52.360;31.026;2022-10-30T10:14:41;1020.8;;;16.4;52.3
55858;BME280;41779;52.360;31.026;2022-10-30T10:19:03;1020.8;;;16.4;52.5
55858;BME280;41779;52.360;31.026;2022-10-30T10:23:56;1020.8;;;16.3;52.3
55858;BME280;41779;52.360;31.026;2022-10-30T10:29:00;1020.8;;;16.2;51.8
55858;BME280;41779;52.360;31.026;2022-10-30T10:34:24;1020.7;;;16.3;51.7
55858;BME280;41779;52.360;31.026;2022-10-30T10:39:41;1020.7;;;16.3;51.4
55858;BME280;41779;52.360;31.026;2022-10-30T10:44:44;1020.7;;;16.3;51.4
55858;BME280;41779;52.360;31.026;2022-10-30T10:49:12;1020.7;;;16.3;51.5
55858;BME280;41779;52.360;31.026;2022-10-30T10:54:09;1020.6;;;16.5;51.4
55858;BME280;41779;52.360;31.026;2022-10-30T10:59:30;1020.6;;;16.6;50.8
55858;BME280;41779;52.360;31.026;2022-10-30T11:04:33;1020.6;;;16.6;50.6
55858;BME280;41779;52.360;31.026;2022-10-30T11:09:16;1020.5;;;16.7;50.3
55858;BME280;41779;52.360;31.026;2022-10-30T11:14:11;1020.4;;;16.7;50.3
55858;BME280;41779;52.360;31.026;2022-10-30T11:18:57;1020.4;;;16.7;50.6
55858;BME280;41779;52.360;31.026;2022-10-30T11:24:31;1020.4;;;16.7;50.5
55858;BME280;41779;52.360;31.026;2022-10-30T11:29:17;1020.4;;;16.7;50.1
55858;BME280;41779;52.360;31.026;2022-10-30T11:34:42;1020.5;;;16.8;49.3
55858;BME280;41779;52.360;31.026;2022-10-30T11:39:09;1020.5;;;16.8;49.4
55858;BME280;41779;52.360;31.026;2022-10-30T11:44:08;1020.5;;;16.8;49.2
55858;BME280;41779;52.360;31.026;2022-10-30T11:49:24;1020.7;;;16.8;49.3
55858;BME280;41779;52.360;31.026;2022-10-30T11:54:42;1020.6;;;16.8;49.4
55858;BME280;41779;52.360;31.026;2022-10-30T11:59:43;1020.5;;;16.8;49.3
55858;BME280;41779;52.360;31.026;2022-10-30T12:04:13;1020.2;;;16.6;48.6
55858;BME280;41779;52.360;31.026;2022-10-30T12:09:09;1020.2;;;16.5;49
55858;BME280;41779;52.360;31.026;2022-10-30T12:14:23;1020.1;;;16.6;48.7
55858;BME280;41779;52.360;31.026;2022-10-30T12:19:32;1020.1;;;16.9;48.1
55858;BME280;41779;52.360;31.026;2022-10-30T12:24:17;1020;;;17;47.4
55858;BME280;41779;52.360;31.026;2022-10-30T12:28:57;1019.9;;;17.2;47.2
55858;BME280;41779;52.360;31.026;2022-10-30T12:34:21;1020;;;17.5;46.3
55858;BME280;41779;52.360;31.026;2022-10-30T12:39:33;1019.9;;;17.8;44.6
55858;BME280;41779;52.360;31.026;2022-10-30T12:43:57;1019.9;;;17.8;43.9
55858;BME280;41779;52.360;31.026;2022-10-30T12:49:40;1019.8;;;17.9;43.4
55858;BME280;41779;52.360;31.026;2022-10-30T12:54:11;1019.7;;;17.8;43.7
55858;BME280;41779;52.360;31.026;2022-10-30T12:58:57;1019.8;;;17.6;44
55858;BME280;41779;52.360;31.026;2022-10-30T13:04:21;1019.9;;;17.4;44.2
55858;BME280;41779;52.360;31.026;2022-10-30T13:09:43;1020;;;17.2;44.2
55858;BME280;41779;52.360;31.026;2022-10-30T13:14:44;1019.9;;;17;44.1
55858;BME280;41779;52.360;31.026;2022-10-30T13:19:08;1019.9;;;16.9;44.6
55858;BME280;41779;52.360;31.026;2022-10-30T13:23:57;1020;;;16.9;45.1
55858;BME280;41779;52.360;31.026;2022-10-30T13:29:32;1020;;;16.8;45.4
55858;BME280;41779;52.360;31.026;2022-10-30T13:34:36;1019.9;;;16.8;45.7
55858;BME280;41779;52.360;31.026;2022-10-30T13:39:17;1019.9;;;16.8;46.1
55858;BME280;41779;52.360;31.026;2022-10-30T13:43:59;1019.9;;;16.7;46.5
55858;BME280;41779;52.360;31.026;2022-10-30T13:49:02;1019.8;;;16.6;46.4
55858;BME280;41779;52.360;31.026;2022-10-30T13:54:13;1019.7;;;16.5;46.9
55858;BME280;41779;52.360;31.026;2022-10-30T13:59:19;1019.7;;;16.4;47.3
55858;BME280;41779;52.360;31.026;2022-10-30T14:04:45;1019.8;;;16.3;47.4
55858;BME280;41779;52.360;31.026;2022-10-30T14:08:58;1019.8;;;16.2;47.2
55858;BME280;41779;52.360;31.026;2022-10-30T14:14:22;1019.8;;;16.1;46.5
55858;BME280;41779;52.360;31.026;2022-10-30T14:19:09;1019.8;;;16.1;46.6
55858;BME280;41779;52.360;31.026;2022-10-30T14:24:42;1019.8;;;16;46.8
55858;BME280;41779;52.360;31.026;2022-10-30T14:29:42;1019.7;;;16;47
55858;BME280;41779;52.360;31.026;2022-10-30T14:34:43;1019.7;;;16;47.3
55858;BME280;41779;52.360;31.026;2022-10-30T14:39:24;1019.6;;;16;47.4
55858;BME280;41779;52.360;31.026;2022-10-30T14:45:07;1019.6;;;15.9;47.3
55858;BME280;41779;52.360;31.026;2022-10-30T14:49:35;1019.6;;;15.9;47.2
55858;BME280;41779;52.360;31.026;2022-10-30T14:54:06;1019.6;;;15.8;47.6
55858;BME280;41779;52.360;31.026;2022-10-30T14:59:42;1019.7;;;15.8;48.2
55858;BME280;41779;52.360;31.026;2022-10-30T15:03:59;1019.7;;;15.8;48.4
55858;BME280;41779;52.360;31.026;2022-10-30T15:09:44;1019.7;;;15.7;48.6
55858;BME280;41779;52.360;31.026;2022-10-30T15:14:20;1019.7;;;15.7;48.6
55858;BME280;41779;52.360;31.026;2022-10-30T15:19:42;1019.6;;;15.6;48.5
55858;BME280;41779;52.360;31.026;2022-10-30T15:24:10;1019.6;;;15.6;48.5
55858;BME280;41779;52.360;31.026;2022-10-30T15:29:19;1019.6;;;15.5;48.5
55858;BME280;41779;52.360;31.026;2022-10-30T15:34:13;1019.6;;;15.5;48.4
55858;BME280;41779;52.360;31.026;2022-10-30T15:39:26;1019.6;;;15.5;48.5
55858;BME280;41779;52.360;31.026;2022-10-30T15:44:43;1019.5;;;15.5;48.4
55858;BME280;41779;52.360;31.026;2022-10-30T15:49:41;1019.6;;;15.4;48.4
55858;BME280;41779;52.360;31.026;2022-10-30T15:54:08;1019.7;;;15.4;48.6
55858;BME280;41779;52.360;31.026;2022-10-30T15:59:31;1019.7;;;15.3;48.8
55858;BME280;41779;52.360;31.026;2022-10-30T16:04:34;1019.6;;;15.3;48.9
55858;BME280;41779;52.360;31.026;2022-10-30T16:09:17;1019.6;;;15.3;49
55858;BME280;41779;52.360;31.026;2022-10-30T16:14:38;1019.6;;;15.3;49.1
55858;BME280;41779;52.360;31.026;2022-10-30T16:19:10;1019.7;;;15.2;49.2
55858;BME280;41779;52.360;31.026;2022-10-30T16:24:42;1019.7;;;15.2;49.5
55858;BME280;41779;52.360;31.026;2022-10-30T16:29:08;1019.8;;;15.1;49.7
55858;BME280;41779;52.360;31.026;2022-10-30T16:34:42;1019.8;;;15.1;50
55858;BME280;41779;52.360;31.026;2022-10-30T16:39:16;1019.8;;;15.1;50.1
55858;BME280;41779;52.360;31.026;2022-10-30T16:44:29;1019.7;;;15;50.3
55858;BME280;41779;52.360;31.026;2022-10-30T16:49:19;1019.7;;;15;50.5
55858;BME280;41779;52.360;31.026;2022-10-30T16:54:30;1019.6;;;14.9;50.9
55858;BME280;41779;52.360;31.026;2022-10-30T16:59:43;1019.5;;;14.9;51.2
55858;BME280;41779;52.360;31.026;2022-10-30T17:04:43;1019.5;;;14.9;51.4
55858;BME280;41779;52.360;31.026;2022-10-30T17:08:57;1019.6;;;14.8;51.6
55858;BME280;41779;52.360;31.026;2022-10-30T17:14:31;1019.6;;;14.8;51.9
55858;BME280;41779;52.360;31.026;2022-10-30T17:19:37;1019.5;;;14.8;51.9
55858;BME280;41779;52.360;31.026;2022-10-30T17:24:15;1019.5;;;14.8;52.1
55858;BME280;41779;52.360;31.026;2022-10-30T17:29:43;1019.6;;;14.8;52.5
55858;BME280;41779;52.360;31.026;2022-10-30T17:34:17;1019.6;;;14.8;52.8
55858;BME280;41779;52.360;31.026;2022-10-30T17:39:42;1019.6;;;14.7;52.7
55858;BME280;41779;52.360;31.026;2022-10-30T17:44:18;1019.6;;;14.6;53.1
55858;BME280;41779;52.360;31.026;2022-10-30T17:49:40;1019.6;;;14.6;53.4
55858;BME280;41779;52.360;31.026;2022-10-30T17:54:16;1019.5;;;14.5;53.4
55858;BME280;41779;52.360;31.026;2022-10-30T17:59:04;1019.5;;;14.5;53.4
55858;BME280;41779;52.360;31.026;2022-10-30T18:04:20;1019.5;;;14.4;53.5
55858;BME280;41779;52.360;31.026;2022-10-30T18:09:28;1019.4;;;14.4;53.7
55858;BME280;41779;52.360;31.026;2022-10-30T18:14:42;1019.4;;;14.4;53.5
55858;BME280;41779;52.360;31.026;2022-10-30T18:19:40;1019.4;;;14.4;53.5
55858;BME280;41779;52.360;31.026;2022-10-30T18:24:09;1019.4;;;14.3;53.4
55858;BME280;41779;52.360;31.026;2022-10-30T18:29:19;1019.4;;;14.3;53.4
55858;BME280;41779;52.360;31.026;2022-10-30T18:34:32;1019.4;;;14.2;53.6
55858;BME280;41779;52.360;31.026;2022-10-30T18:38:56;1019.3;;;14.2;54.1
55858;BME280;41779;52.360;31.026;2022-10-30T18:44:42;1019.3;;;14.1;54.4
55858;BME280;41779;52.360;31.026;2022-10-30T18:48:56;1019.3;;;14.1;54.5
55858;BME280;41779;52.360;31.026;2022-10-30T18:54:43;1019.2;;;14.1;54.7
55858;BME280;41779;52.360;31.026;2022-10-30T18:59:18;1019.2;;;14.1;54.9
55858;BME280;41779;52.360;31.026;2022-10-30T19:04:20;1019.2;;;14.1;55.4
55858;BME280;41779;52.360;31.026;2022-10-30T19:09:16;1019.1;;;14.1;55.8
55858;BME280;41779;52.360;31.026;2022-10-30T19:13:56;1019.1;;;14.1;55.8
55858;BME280;41779;52.360;31.026;2022-10-30T19:19:20;1019.1;;;14.1;55.8
55858;BME280;41779;52.360;31.026;2022-10-30T19:24:28;1019.1;;;14;55.8
55858;BME280;41779;52.360;31.026;2022-10-30T19:29:18;1019.1;;;14;55.9
55858;BME280;41779;52.360;31.026;2022-10-30T19:34:40;1019.1;;;14;56
55858;BME280;41779;52.360;31.026;2022-10-30T19:38:56;1019;;;13.9;56.2
55858;BME280;41779;52.360;31.026;2022-10-30T19:44:42;1019;;;13.9;56.4
55858;BME280;41779;52.360;31.026;2022-10-30T19:49:30;1019;;;13.9;56.5
55858;BME280;41779;52.360;31.026;2022-10-30T19:54:26;1019;;;13.9;56.4
55858;BME280;41779;52.360;31.026;2022-10-30T19:59:28;1019;;;13.9;56.4
55858;BME280;41779;52.360;31.026;2022-10-30T20:03:56;1019;;;13.9;56.4
55858;BME280;41779;52.360;31.026;2022-10-30T20:09:38;1019.1;;;13.9;56.6
55858;BME280;41779;52.360;31.026;2022-10-30T20:14:08;1019.1;;;13.9;56.7
55858;BME280;41779;52.360;31.026;2022-10-30T20:19:32;1019.1;;;13.9;56.7
55858;BME280;41779;52.360;31.026;2022-10-30T20:24:16;1019.1;;;13.8;56.6
55858;BME280;41779;52.360;31.026;2022-10-30T20:29:08;1019.1;;;13.8;56.6
55858;BME280;41779;52.360;31.026;2022-10-30T20:34:20;1019.1;;;13.9;56.5
55858;BME280;41779;52.360;31.026;2022-10-30T20:39:26;1019;;;13.8;56.6
55858;BME280;41779;52.360;31.026;2022-10-30T20:44:18;1019.1;;;13.8;56.6
55858;BME280;41779;52.360;31.026;2022-10-30T20:49:42;1019.1;;;13.8;56.6
55858;BME280;41779;52.360;31.026;2022-10-30T20:54:08;1019.1;;;13.8;56.6
55858;BME280;41779;52.360;31.026;2022-10-30T20:59:42;1019.1;;;13.8;56.5
55858;BME280;41779;52.360;31.026;2022-10-30T21:04:30;1019.1;;;13.8;56.4
55858;BME280;41779;52.360;31.026;2022-10-30T21:09:28;1019.1;;;13.7;56.5
55858;BME280;41779;52.360;31.026;2022-10-30T21:14:28;1019.1;;;13.6;56.6
55858;BME280;41779;52.360;31.026;2022-10-30T21:19:02;1019.1;;;13.6;56.1
55858;BME280;41779;52.360;31.026;2022-10-30T21:24:42;1019.1;;;13.5;55.4
55858;BME280;41779;52.360;31.026;2022-10-30T21:29:18;1019.1;;;13.4;54.8
55858;BME280;41779;52.360;31.026;2022-10-30T21:34:32;1019.1;;;13.4;54.3
55858;BME280;41779;52.360;31.026;2022-10-30T21:39:14;1019.1;;;13.3;53.8
55858;BME280;41779;52.360;31.026;2022-10-30T21:43:57;1019.2;;;13.3;52.5
55858;BME280;41779;52.360;31.026;2022-10-30T21:49:40;1019.3;;;13.2;52
55858;BME280;41779;52.360;31.026;2022-10-30T21:54:26;1019.4;;;13.1;52.2
55858;BME280;41779;52.360;31.026;2022-10-30T21:59:15;1019.4;;;13.1;52
55858;BME280;41779;52.360;31.026;2022-10-30T22:04:36;1019.5;;;13.1;51.6
55858;BME280;41779;52.360;31.026;2022-10-30T22:09:05;1019.6;;;13.1;51.9
55858;BME280;41779;52.360;31.026;2022-10-30T22:14:36;1019.6;;;13.1;52
55858;BME280;41779;52.360;31.026;2022-10-30T22:19:26;1019.7;;;13.1;52.1
55858;BME280;41779;52.360;31.026;2022-10-30T22:24:24;1019.8;;;13.1;52
55858;BME280;41779;52.360;31.026;2022-10-30T22:29:38;1019.8;;;13.1;51.5
55858;BME280;41779;52.360;31.026;2022-10-30T22:33:57;1020;;;13;51.5
55858;BME280;41779;52.360;31.026;2022-10-30T22:39:35;1020;;;13;51.6
55858;BME280;41779;52.360;31.026;2022-10-30T22:44:14;1020.1;;;13;51.7
55858;BME280;41779;52.360;31.026;2022-10-30T22:49:27;1020.1;;;12.9;50.7
55858;BME280;41779;52.360;31.026;2022-10-30T22:53:57;1020.3;;;12.8;49.3
55858;BME280;41779;52.360;31.026;2022-10-30T22:59:05;1020.4;;;12.7;49.2
55858;BME280;41779;52.360;31.026;2022-10-30T23:04:16;1020.4;;;12.5;50.1
55858;BME280;41779;52.360;31.026;2022-10-30T23:09:23;1020.5;;;12.4;50.5
55858;BME280;41779;52.360;31.026;2022-10-30T23:14:15;1020.5;;;12.3;50.2
55858;BME280;41779;52.360;31.026;2022-10-30T23:19:37;1020.5;;;12.1;50.6
55858;BME280;41779;52.360;31.026;2022-10-30T23:23:57;1020.6;;;12;50.8
55858;BME280;41779;52.360;31.026;2022-10-30T23:29:39;1020.7;;;11.9;51.2
55858;BME280;41779;52.360;31.026;2022-10-30T23:34:07;1020.7;;;11.8;51.4
55858;BME280;41779;52.360;31.026;2022-10-30T23:39:23;1020.7;;;11.7;51.4
55858;BME280;41779;52.360;31.026;2022-10-30T23:44:27;1020.7;;;11.6;51.2
55858;BME280;41779;52.360;31.026;2022-10-30T23:48:57;1020.8;;;11.5;50.9
55858;BME280;41779;52.360;31.026;2022-10-30T23:54:39;1020.8;;;11.4;50.5
55858;BME280;41779;52.360;31.026;2022-10-30T23:59:39;1020.9;;;11.4;50
